sensor_id;sensor_type;location;lat;lon;timestamp;P1;durP1;ratioP1;P2;durP2;ratioP2
22939;SDS011;11636;52.086;5.090;2022-08-01T00:00:08;7.50;;;4.93;;
22939;SDS011;11636;52.086;5.090;2022-08-01T00:02:56;8.45;;;6.18;;
22939;SDS011;11636;52.086;5.090;2022-08-01T00:05:50;8.35;;;6.15;;
22939;SDS011;11636;52.086;5.090;2022-08-01T00:08:37;8.05;;;5.68;;
22939;SDS011;11636;52.086;5.090;2022-08-01T00:11:31;7.10;;;5.40;;
22939;SDS011;11636;52.086;5.090;2022-08-01T00:14:18;8.05;;;5.15;;
22939;SDS011;11636;52.086;5.090;2022-08-01T00:17:18;8.85;;;6.88;;
22939;SDS011;11636;52.086;5.090;2022-08-01T00:20:06;10.98;;;6.95;;
22939;SDS011;11636;52.086;5.090;2022-08-01T00:23:02;9.95;;;7.50;;
22939;SDS011;11636;52.086;5.090;2022-08-01T00:25:49;10.10;;;7.15;;
22939;SDS011;11636;52.086;5.090;2022-08-01T00:28:43;7.07;;;5.38;;
22939;SDS011;11636;52.086;5.090;2022-08-01T00:31:30;9.63;;;5.85;;
22939;SDS011;11636;52.086;5.090;2022-08-01T00:34:24;7.38;;;5.38;;
22939;SDS011;11636;52.086;5.090;2022-08-01T00:37:11;11.10;;;6.53;;
22939;SDS011;11636;52.086;5.090;2022-08-01T00:40:05;11.43;;;7.65;;
22939;SDS011;11636;52.086;5.090;2022-08-01T00:42:53;10.93;;;7.57;;
22939;SDS011;11636;52.086;5.090;2022-08-01T00:45:47;11.48;;;8.38;;
22939;SDS011;11636;52.086;5.090;2022-08-01T00:48:41;10.45;;;7.28;;
22939;SDS011;11636;52.086;5.090;2022-08-01T00:51:28;12.23;;;8.13;;
22939;SDS011;11636;52.086;5.090;2022-08-01T00:54:22;9.23;;;6.80;;
22939;SDS011;11636;52.086;5.090;2022-08-01T00:57:11;10.48;;;6.93;;
22939;SDS011;11636;52.086;5.090;2022-08-01T01:00:25;9.55;;;6.10;;
22939;SDS011;11636;52.086;5.090;2022-08-01T01:03:13;12.50;;;7.57;;
22939;SDS011;11636;52.086;5.090;2022-08-01T01:15:49;12.77;;;8.85;;
22939;SDS011;11636;52.086;5.090;2022-08-01T01:19:00;14.38;;;9.40;;
22939;SDS011;11636;52.086;5.090;2022-08-01T01:30:55;15.73;;;10.43;;
22939;SDS011;11636;52.086;5.090;2022-08-01T01:33:51;12.52;;;8.15;;
22939;SDS011;11636;52.086;5.090;2022-08-01T01:36:40;16.70;;;10.60;;
22939;SDS011;11636;52.086;5.090;2022-08-01T01:39:36;13.70;;;8.73;;
22939;SDS011;11636;52.086;5.090;2022-08-01T01:42:30;13.48;;;9.65;;
22939;SDS011;11636;52.086;5.090;2022-08-01T01:45:26;14.55;;;10.02;;
22939;SDS011;11636;52.086;5.090;2022-08-01T01:48:16;14.38;;;8.77;;
22939;SDS011;11636;52.086;5.090;2022-08-01T01:51:11;15.88;;;9.82;;
22939;SDS011;11636;52.086;5.090;2022-08-01T01:54:00;18.08;;;11.63;;
22939;SDS011;11636;52.086;5.090;2022-08-01T01:56:56;14.77;;;8.95;;
22939;SDS011;11636;52.086;5.090;2022-08-01T01:59:46;11.40;;;7.22;;
22939;SDS011;11636;52.086;5.090;2022-08-01T02:02:43;11.40;;;7.22;;
22939;SDS011;11636;52.086;5.090;2022-08-01T02:05:32;9.30;;;6.55;;
22939;SDS011;11636;52.086;5.090;2022-08-01T02:08:28;12.50;;;7.03;;
22939;SDS011;11636;52.086;5.090;2022-08-01T02:11:19;11.93;;;7.18;;
22939;SDS011;11636;52.086;5.090;2022-08-01T02:14:16;9.90;;;6.35;;
22939;SDS011;11636;52.086;5.090;2022-08-01T02:17:06;10.75;;;6.88;;
22939;SDS011;11636;52.086;5.090;2022-08-01T02:20:02;8.82;;;5.55;;
22939;SDS011;11636;52.086;5.090;2022-08-01T02:22:50;8.38;;;5.50;;
22939;SDS011;11636;52.086;5.090;2022-08-01T02:25:49;7.82;;;5.18;;
22939;SDS011;11636;52.086;5.090;2022-08-01T02:28:57;8.57;;;5.93;;
22939;SDS011;11636;52.086;5.090;2022-08-01T02:31:55;7.82;;;5.05;;
22939;SDS011;11636;52.086;5.090;2022-08-01T02:34:43;8.95;;;5.68;;
22939;SDS011;11636;52.086;5.090;2022-08-01T02:37:40;7.88;;;4.80;;
22939;SDS011;11636;52.086;5.090;2022-08-01T02:40:33;7.70;;;4.75;;
22939;SDS011;11636;52.086;5.090;2022-08-01T02:43:29;6.25;;;4.45;;
22939;SDS011;11636;52.086;5.090;2022-08-01T02:46:22;6.55;;;4.45;;
22939;SDS011;11636;52.086;5.090;2022-08-01T02:49:21;9.82;;;7.15;;
22939;SDS011;11636;52.086;5.090;2022-08-01T02:52:25;8.57;;;6.20;;
22939;SDS011;11636;52.086;5.090;2022-08-01T02:55:15;9.57;;;7.50;;
22939;SDS011;11636;52.086;5.090;2022-08-01T02:58:18;10.77;;;8.48;;
22939;SDS011;11636;52.086;5.090;2022-08-01T03:01:14;10.65;;;7.70;;
22939;SDS011;11636;52.086;5.090;2022-08-01T03:04:14;7.38;;;6.03;;
22939;SDS011;11636;52.086;5.090;2022-08-01T03:07:10;10.88;;;8.10;;
22939;SDS011;11636;52.086;5.090;2022-08-01T03:09:59;9.05;;;7.38;;
22939;SDS011;11636;52.086;5.090;2022-08-01T03:12:54;7.15;;;5.82;;
22939;SDS011;11636;52.086;5.090;2022-08-01T03:15:43;7.10;;;5.53;;
22939;SDS011;11636;52.086;5.090;2022-08-01T03:18:38;7.13;;;5.40;;
22939;SDS011;11636;52.086;5.090;2022-08-01T03:21:27;5.88;;;4.57;;
22939;SDS011;11636;52.086;5.090;2022-08-01T03:24:23;7.22;;;4.97;;
22939;SDS011;11636;52.086;5.090;2022-08-01T03:27:20;6.13;;;4.90;;
22939;SDS011;11636;52.086;5.090;2022-08-01T03:30:17;6.47;;;5.60;;
22939;SDS011;11636;52.086;5.090;2022-08-01T03:33:04;7.10;;;4.95;;
22939;SDS011;11636;52.086;5.090;2022-08-01T03:36:00;9.35;;;6.65;;
22939;SDS011;11636;52.086;5.090;2022-08-01T03:38:49;8.45;;;5.78;;
22939;SDS011;11636;52.086;5.090;2022-08-01T03:41:50;6.45;;;5.38;;
22939;SDS011;11636;52.086;5.090;2022-08-01T03:44:48;7.10;;;5.20;;
22939;SDS011;11636;52.086;5.090;2022-08-01T03:47:43;5.00;;;4.50;;
22939;SDS011;11636;52.086;5.090;2022-08-01T03:50:41;5.75;;;4.47;;
22939;SDS011;11636;52.086;5.090;2022-08-01T03:53:32;5.43;;;4.10;;
22939;SDS011;11636;52.086;5.090;2022-08-01T03:56:28;5.93;;;5.07;;
22939;SDS011;11636;52.086;5.090;2022-08-01T03:59:18;8.27;;;5.05;;
22939;SDS011;11636;52.086;5.090;2022-08-01T04:02:13;4.75;;;3.72;;
22939;SDS011;11636;52.086;5.090;2022-08-01T04:05:01;5.28;;;4.25;;
22939;SDS011;11636;52.086;5.090;2022-08-01T04:07:56;6.13;;;5.13;;
22939;SDS011;11636;52.086;5.090;2022-08-01T04:10:51;5.65;;;4.45;;
22939;SDS011;11636;52.086;5.090;2022-08-01T04:13:38;5.00;;;4.00;;
22939;SDS011;11636;52.086;5.090;2022-08-01T04:16:32;5.05;;;4.38;;
22939;SDS011;11636;52.086;5.090;2022-08-01T04:19:27;6.75;;;5.53;;
22939;SDS011;11636;52.086;5.090;2022-08-01T04:22:14;7.53;;;5.45;;
22939;SDS011;11636;52.086;5.090;2022-08-01T04:25:19;6.97;;;5.03;;
22939;SDS011;11636;52.086;5.090;2022-08-01T04:28:17;9.40;;;5.93;;
22939;SDS011;11636;52.086;5.090;2022-08-01T04:31:12;6.63;;;5.30;;
22939;SDS011;11636;52.086;5.090;2022-08-01T04:34:09;7.03;;;5.38;;
22939;SDS011;11636;52.086;5.090;2022-08-01T04:36:59;9.63;;;7.00;;
22939;SDS011;11636;52.086;5.090;2022-08-01T04:39:54;9.35;;;5.57;;
22939;SDS011;11636;52.086;5.090;2022-08-01T04:42:43;7.82;;;5.38;;
22939;SDS011;11636;52.086;5.090;2022-08-01T04:45:37;9.50;;;6.22;;
22939;SDS011;11636;52.086;5.090;2022-08-01T04:48:25;8.10;;;6.20;;
22939;SDS011;11636;52.086;5.090;2022-08-01T04:51:19;6.35;;;5.50;;
22939;SDS011;11636;52.086;5.090;2022-08-01T04:54:08;9.52;;;6.82;;
22939;SDS011;11636;52.086;5.090;2022-08-01T04:57:03;9.00;;;6.18;;
22939;SDS011;11636;52.086;5.090;2022-08-01T04:59:51;8.35;;;5.82;;
22939;SDS011;11636;52.086;5.090;2022-08-01T05:02:49;9.50;;;6.65;;
22939;SDS011;11636;52.086;5.090;2022-08-01T05:05:43;9.38;;;6.43;;
22939;SDS011;11636;52.086;5.090;2022-08-01T05:08:37;10.40;;;7.35;;
22939;SDS011;11636;52.086;5.090;2022-08-01T05:11:24;8.15;;;6.30;;
22939;SDS011;11636;52.086;5.090;2022-08-01T05:14:19;8.80;;;6.50;;
22939;SDS011;11636;52.086;5.090;2022-08-01T05:17:13;7.15;;;5.30;;
22939;SDS011;11636;52.086;5.090;2022-08-01T05:20:07;5.63;;;4.57;;
22939;SDS011;11636;52.086;5.090;2022-08-01T05:22:55;4.60;;;3.55;;
22939;SDS011;11636;52.086;5.090;2022-08-01T05:25:50;4.70;;;3.03;;
22939;SDS011;11636;52.086;5.090;2022-08-01T05:28:43;4.05;;;2.55;;
22939;SDS011;11636;52.086;5.090;2022-08-01T05:31:37;3.70;;;2.42;;
22939;SDS011;11636;52.086;5.090;2022-08-01T05:34:31;2.50;;;1.75;;
22939;SDS011;11636;52.086;5.090;2022-08-01T05:37:18;3.22;;;1.90;;
22939;SDS011;11636;52.086;5.090;2022-08-01T05:40:12;2.30;;;1.50;;
22939;SDS011;11636;52.086;5.090;2022-08-01T05:42:59;4.00;;;2.30;;
22939;SDS011;11636;52.086;5.090;2022-08-01T05:45:53;4.40;;;2.22;;
22939;SDS011;11636;52.086;5.090;2022-08-01T05:48:40;2.70;;;2.10;;
22939;SDS011;11636;52.086;5.090;2022-08-01T05:51:34;2.50;;;1.70;;
22939;SDS011;11636;52.086;5.090;2022-08-01T05:54:22;3.08;;;2.17;;
22939;SDS011;11636;52.086;5.090;2022-08-01T05:57:15;2.53;;;1.70;;
22939;SDS011;11636;52.086;5.090;2022-08-01T06:00:03;3.28;;;1.90;;
22939;SDS011;11636;52.086;5.090;2022-08-01T06:02:56;2.83;;;1.80;;
22939;SDS011;11636;52.086;5.090;2022-08-01T06:05:51;2.40;;;1.70;;
22939;SDS011;11636;52.086;5.090;2022-08-01T06:08:39;2.50;;;1.60;;
22939;SDS011;11636;52.086;5.090;2022-08-01T06:11:32;2.60;;;1.80;;
22939;SDS011;11636;52.086;5.090;2022-08-01T06:14:19;3.75;;;2.38;;
22939;SDS011;11636;52.086;5.090;2022-08-01T06:17:13;3.65;;;2.20;;
22939;SDS011;11636;52.086;5.090;2022-08-01T06:20:02;3.47;;;2.42;;
22939;SDS011;11636;52.086;5.090;2022-08-01T06:22:56;2.92;;;2.15;;
22939;SDS011;11636;52.086;5.090;2022-08-01T06:25:48;3.92;;;2.20;;
22939;SDS011;11636;52.086;5.090;2022-08-01T06:28:44;2.38;;;1.75;;
22939;SDS011;11636;52.086;5.090;2022-08-01T06:31:31;2.30;;;1.60;;
22939;SDS011;11636;52.086;5.090;2022-08-01T06:34:25;3.22;;;1.92;;
22939;SDS011;11636;52.086;5.090;2022-08-01T06:37:19;3.30;;;2.08;;
22939;SDS011;11636;52.086;5.090;2022-08-01T06:40:08;3.75;;;2.00;;
22939;SDS011;11636;52.086;5.090;2022-08-01T06:43:03;8.55;;;3.22;;
22939;SDS011;11636;52.086;5.090;2022-08-01T06:45:57;7.03;;;3.58;;
22939;SDS011;11636;52.086;5.090;2022-08-01T06:48:44;7.00;;;3.20;;
22939;SDS011;11636;52.086;5.090;2022-08-01T06:51:38;8.70;;;3.40;;
22939;SDS011;11636;52.086;5.090;2022-08-01T06:54:26;10.35;;;3.85;;
22939;SDS011;11636;52.086;5.090;2022-08-01T06:57:19;8.70;;;3.70;;
22939;SDS011;11636;52.086;5.090;2022-08-01T07:00:07;7.18;;;3.10;;
22939;SDS011;11636;52.086;5.090;2022-08-01T07:03:03;6.78;;;2.95;;
22939;SDS011;11636;52.086;5.090;2022-08-01T07:05:50;11.95;;;3.47;;
22939;SDS011;11636;52.086;5.090;2022-08-01T07:08:44;9.35;;;3.45;;
22939;SDS011;11636;52.086;5.090;2022-08-01T07:11:39;13.63;;;3.50;;
22939;SDS011;11636;52.086;5.090;2022-08-01T07:14:32;7.20;;;2.60;;
22939;SDS011;11636;52.086;5.090;2022-08-01T07:17:26;10.65;;;2.85;;
22939;SDS011;11636;52.086;5.090;2022-08-01T07:20:20;16.17;;;3.70;;
22939;SDS011;11636;52.086;5.090;2022-08-01T07:23:08;10.43;;;3.00;;
22939;SDS011;11636;52.086;5.090;2022-08-01T07:26:07;9.95;;;3.00;;
22939;SDS011;11636;52.086;5.090;2022-08-01T07:29:00;9.40;;;2.75;;
22939;SDS011;11636;52.086;5.090;2022-08-01T07:31:49;10.75;;;3.08;;
22939;SDS011;11636;52.086;5.090;2022-08-01T07:34:42;12.57;;;2.80;;
22939;SDS011;11636;52.086;5.090;2022-08-01T07:37:29;11.45;;;2.72;;
22939;SDS011;11636;52.086;5.090;2022-08-01T07:40:34;9.88;;;2.40;;
22939;SDS011;11636;52.086;5.090;2022-08-01T07:43:28;10.95;;;2.70;;
22939;SDS011;11636;52.086;5.090;2022-08-01T07:46:22;12.52;;;2.50;;
22939;SDS011;11636;52.086;5.090;2022-08-01T07:49:16;10.32;;;3.10;;
22939;SDS011;11636;52.086;5.090;2022-08-01T07:52:04;5.75;;;1.77;;
22939;SDS011;11636;52.086;5.090;2022-08-01T07:54:57;9.65;;;2.45;;
22939;SDS011;11636;52.086;5.090;2022-08-01T07:57:51;8.60;;;2.08;;
22939;SDS011;11636;52.086;5.090;2022-08-01T08:00:39;10.65;;;2.15;;
22939;SDS011;11636;52.086;5.090;2022-08-01T08:03:32;4.97;;;1.50;;
22939;SDS011;11636;52.086;5.090;2022-08-01T08:06:20;7.32;;;1.80;;
22939;SDS011;11636;52.086;5.090;2022-08-01T08:09:14;8.57;;;2.00;;
22939;SDS011;11636;52.086;5.090;2022-08-01T08:12:03;8.50;;;1.90;;
22939;SDS011;11636;52.086;5.090;2022-08-01T08:14:58;6.13;;;2.13;;
22939;SDS011;11636;52.086;5.090;2022-08-01T08:17:47;5.45;;;1.50;;
22939;SDS011;11636;52.086;5.090;2022-08-01T08:20:40;4.45;;;1.30;;
22939;SDS011;11636;52.086;5.090;2022-08-01T08:23:35;7.18;;;1.60;;
22939;SDS011;11636;52.086;5.090;2022-08-01T08:26:41;6.65;;;1.85;;
22939;SDS011;11636;52.086;5.090;2022-08-01T08:29:37;8.20;;;1.80;;
22939;SDS011;11636;52.086;5.090;2022-08-01T08:32:31;8.27;;;1.80;;
22939;SDS011;11636;52.086;5.090;2022-08-01T08:35:25;7.07;;;1.75;;
22939;SDS011;11636;52.086;5.090;2022-08-01T08:38:39;8.60;;;2.13;;
22939;SDS011;11636;52.086;5.090;2022-08-01T08:41:33;5.97;;;1.52;;
22939;SDS011;11636;52.086;5.090;2022-08-01T08:44:23;6.40;;;1.73;;
22939;SDS011;11636;52.086;5.090;2022-08-01T08:47:17;7.85;;;2.00;;
22939;SDS011;11636;52.086;5.090;2022-08-01T08:50:06;7.05;;;1.80;;
22939;SDS011;11636;52.086;5.090;2022-08-01T08:53:00;8.40;;;1.75;;
22939;SDS011;11636;52.086;5.090;2022-08-01T08:55:52;5.38;;;1.40;;
22939;SDS011;11636;52.086;5.090;2022-08-01T08:58:47;6.97;;;1.40;;
22939;SDS011;11636;52.086;5.090;2022-08-01T09:01:42;5.20;;;1.40;;
22939;SDS011;11636;52.086;5.090;2022-08-01T09:04:36;8.32;;;1.65;;
22939;SDS011;11636;52.086;5.090;2022-08-01T09:07:25;5.07;;;1.60;;
22939;SDS011;11636;52.086;5.090;2022-08-01T09:10:19;6.00;;;1.25;;
22939;SDS011;11636;52.086;5.090;2022-08-01T09:13:13;5.53;;;1.30;;
22939;SDS011;11636;52.086;5.090;2022-08-01T09:16:01;4.68;;;1.40;;
22939;SDS011;11636;52.086;5.090;2022-08-01T09:19:04;4.93;;;1.48;;
22939;SDS011;11636;52.086;5.090;2022-08-01T09:22:02;3.97;;;1.10;;
22939;SDS011;11636;52.086;5.090;2022-08-01T09:27:46;9.65;;;1.70;;
22939;SDS011;11636;52.086;5.090;2022-08-01T09:30:41;6.47;;;1.73;;
22939;SDS011;11636;52.086;5.090;2022-08-01T09:33:45;7.57;;;1.77;;
22939;SDS011;11636;52.086;5.090;2022-08-01T09:36:53;5.63;;;1.20;;
22939;SDS011;11636;52.086;5.090;2022-08-01T09:39:46;4.35;;;1.23;;
22939;SDS011;11636;52.086;5.090;2022-08-01T09:42:50;3.80;;;1.10;;
22939;SDS011;11636;52.086;5.090;2022-08-01T09:45:48;3.67;;;1.00;;
22939;SDS011;11636;52.086;5.090;2022-08-01T09:48:38;3.60;;;1.00;;
22939;SDS011;11636;52.086;5.090;2022-08-01T09:51:47;2.70;;;0.88;;
22939;SDS011;11636;52.086;5.090;2022-08-01T09:55:20;7.75;;;1.50;;
22939;SDS011;11636;52.086;5.090;2022-08-01T09:58:14;4.65;;;1.50;;
22939;SDS011;11636;52.086;5.090;2022-08-01T10:01:08;3.60;;;1.30;;
22939;SDS011;11636;52.086;5.090;2022-08-01T10:04:05;6.13;;;1.50;;
22939;SDS011;11636;52.086;5.090;2022-08-01T10:07:06;2.63;;;1.00;;
22939;SDS011;11636;52.086;5.090;2022-08-01T10:10:21;6.95;;;1.63;;
22939;SDS011;11636;52.086;5.090;2022-08-01T10:13:14;5.80;;;1.52;;
22939;SDS011;11636;52.086;5.090;2022-08-01T10:16:08;3.92;;;1.17;;
22939;SDS011;11636;52.086;5.090;2022-08-01T10:19:04;4.07;;;1.00;;
22939;SDS011;11636;52.086;5.090;2022-08-01T10:22:01;4.68;;;1.40;;
22939;SDS011;11636;52.086;5.090;2022-08-01T10:25:02;6.03;;;1.67;;
22939;SDS011;11636;52.086;5.090;2022-08-01T10:27:59;6.32;;;1.67;;
22939;SDS011;11636;52.086;5.090;2022-08-01T10:30:48;6.55;;;1.58;;
22939;SDS011;11636;52.086;5.090;2022-08-01T10:33:43;5.32;;;1.52;;
22939;SDS011;11636;52.086;5.090;2022-08-01T10:36:39;5.65;;;1.58;;
22939;SDS011;11636;52.086;5.090;2022-08-01T10:39:33;5.90;;;1.63;;
22939;SDS011;11636;52.086;5.090;2022-08-01T10:42:28;4.80;;;1.30;;
22939;SDS011;11636;52.086;5.090;2022-08-01T10:45:15;9.40;;;1.60;;
22939;SDS011;11636;52.086;5.090;2022-08-01T10:51:10;2.28;;;0.75;;
22939;SDS011;11636;52.086;5.090;2022-08-01T10:54:05;4.97;;;1.33;;
22939;SDS011;11636;52.086;5.090;2022-08-01T10:57:01;3.92;;;1.10;;
22939;SDS011;11636;52.086;5.090;2022-08-01T10:59:55;4.75;;;1.20;;
22939;SDS011;11636;52.086;5.090;2022-08-01T11:02:58;3.50;;;1.20;;
22939;SDS011;11636;52.086;5.090;2022-08-01T11:05:50;6.80;;;2.10;;
22939;SDS011;11636;52.086;5.090;2022-08-01T11:08:50;5.90;;;1.75;;
22939;SDS011;11636;52.086;5.090;2022-08-01T11:18:29;7.50;;;1.67;;
22939;SDS011;11636;52.086;5.090;2022-08-01T11:21:16;5.22;;;1.70;;
22939;SDS011;11636;52.086;5.090;2022-08-01T11:27:42;6.90;;;1.90;;
22939;SDS011;11636;52.086;5.090;2022-08-01T11:30:36;8.13;;;1.70;;
22939;SDS011;11636;52.086;5.090;2022-08-01T11:36:32;6.40;;;1.95;;
22939;SDS011;11636;52.086;5.090;2022-08-01T11:40:08;6.35;;;1.70;;
22939;SDS011;11636;52.086;5.090;2022-08-01T11:46:17;5.05;;;1.17;;
22939;SDS011;11636;52.086;5.090;2022-08-01T11:49:24;4.68;;;1.10;;
22939;SDS011;11636;52.086;5.090;2022-08-01T11:52:29;4.82;;;1.15;;
22939;SDS011;11636;52.086;5.090;2022-08-01T11:55:26;5.13;;;1.08;;
22939;SDS011;11636;52.086;5.090;2022-08-01T11:58:24;3.58;;;1.02;;
22939;SDS011;11636;52.086;5.090;2022-08-01T12:01:20;2.85;;;0.80;;
22939;SDS011;11636;52.086;5.090;2022-08-01T12:04:15;2.97;;;0.85;;
22939;SDS011;11636;52.086;5.090;2022-08-01T12:07:16;2.10;;;0.63;;
22939;SDS011;11636;52.086;5.090;2022-08-01T12:10:05;3.72;;;1.00;;
22939;SDS011;11636;52.086;5.090;2022-08-01T12:13:04;2.92;;;0.75;;
22939;SDS011;11636;52.086;5.090;2022-08-01T12:16:05;2.97;;;0.70;;
22939;SDS011;11636;52.086;5.090;2022-08-01T12:18:54;3.40;;;0.70;;
22939;SDS011;11636;52.086;5.090;2022-08-01T12:25:11;4.07;;;0.93;;
22939;SDS011;11636;52.086;5.090;2022-08-01T12:28:08;1.92;;;0.50;;
22939;SDS011;11636;52.086;5.090;2022-08-01T12:30:56;3.03;;;0.70;;
22939;SDS011;11636;52.086;5.090;2022-08-01T12:33:49;3.17;;;0.75;;
22939;SDS011;11636;52.086;5.090;2022-08-01T12:36:43;3.40;;;0.70;;
22939;SDS011;11636;52.086;5.090;2022-08-01T12:39:34;2.22;;;0.70;;
22939;SDS011;11636;52.086;5.090;2022-08-01T12:42:28;2.53;;;0.55;;
22939;SDS011;11636;52.086;5.090;2022-08-01T12:45:17;2.20;;;0.60;;
22939;SDS011;11636;52.086;5.090;2022-08-01T12:48:15;2.35;;;0.57;;
22939;SDS011;11636;52.086;5.090;2022-08-01T12:51:03;2.47;;;0.60;;
22939;SDS011;11636;52.086;5.090;2022-08-01T12:54:00;2.28;;;0.73;;
22939;SDS011;11636;52.086;5.090;2022-08-01T12:56:59;3.17;;;0.88;;
22939;SDS011;11636;52.086;5.090;2022-08-01T12:59:46;3.67;;;0.90;;
22939;SDS011;11636;52.086;5.090;2022-08-01T13:02:40;8.98;;;1.25;;
22939;SDS011;11636;52.086;5.090;2022-08-01T13:05:40;4.88;;;1.23;;
22939;SDS011;11636;52.086;5.090;2022-08-01T13:08:43;3.03;;;1.00;;
22939;SDS011;11636;52.086;5.090;2022-08-01T13:11:38;4.10;;;1.33;;
22939;SDS011;11636;52.086;5.090;2022-08-01T13:14:50;2.72;;;0.80;;
22939;SDS011;11636;52.086;5.090;2022-08-01T13:17:44;4.70;;;1.05;;
22939;SDS011;11636;52.086;5.090;2022-08-01T13:20:38;3.22;;;0.88;;
22939;SDS011;11636;52.086;5.090;2022-08-01T13:23:38;4.03;;;0.98;;
22939;SDS011;11636;52.086;5.090;2022-08-01T13:26:51;4.07;;;0.90;;
22939;SDS011;11636;52.086;5.090;2022-08-01T13:29:48;3.60;;;0.87;;
22939;SDS011;11636;52.086;5.090;2022-08-01T13:32:59;2.70;;;0.70;;
22939;SDS011;11636;52.086;5.090;2022-08-01T13:35:58;2.70;;;0.90;;
22939;SDS011;11636;52.086;5.090;2022-08-01T13:38:52;3.92;;;1.10;;
22939;SDS011;11636;52.086;5.090;2022-08-01T13:41:58;4.78;;;1.00;;
22939;SDS011;11636;52.086;5.090;2022-08-01T13:44:51;3.40;;;0.90;;
22939;SDS011;11636;52.086;5.090;2022-08-01T13:47:45;4.30;;;1.30;;
22939;SDS011;11636;52.086;5.090;2022-08-01T13:50:52;3.40;;;1.00;;
22939;SDS011;11636;52.086;5.090;2022-08-01T13:54:06;3.20;;;1.10;;
22939;SDS011;11636;52.086;5.090;2022-08-01T13:56:54;3.03;;;0.82;;
22939;SDS011;11636;52.086;5.090;2022-08-01T13:59:48;6.43;;;1.35;;
22939;SDS011;11636;52.086;5.090;2022-08-01T14:02:42;4.35;;;0.90;;
22939;SDS011;11636;52.086;5.090;2022-08-01T14:05:29;3.25;;;0.95;;
22939;SDS011;11636;52.086;5.090;2022-08-01T14:08:23;4.90;;;1.00;;
22939;SDS011;11636;52.086;5.090;2022-08-01T14:11:17;5.30;;;1.10;;
22939;SDS011;11636;52.086;5.090;2022-08-01T14:14:16;5.30;;;1.33;;
22939;SDS011;11636;52.086;5.090;2022-08-01T14:17:03;4.18;;;1.15;;
22939;SDS011;11636;52.086;5.090;2022-08-01T14:19:57;3.65;;;0.98;;
22939;SDS011;11636;52.086;5.090;2022-08-01T14:22:46;2.83;;;0.70;;
22939;SDS011;11636;52.086;5.090;2022-08-01T14:25:39;4.50;;;0.95;;
22939;SDS011;11636;52.086;5.090;2022-08-01T14:28:47;2.50;;;0.70;;
22939;SDS011;11636;52.086;5.090;2022-08-01T14:31:41;4.15;;;0.90;;
22939;SDS011;11636;52.086;5.090;2022-08-01T14:34:28;5.15;;;1.23;;
22939;SDS011;11636;52.086;5.090;2022-08-01T14:37:22;3.45;;;1.00;;
22939;SDS011;11636;52.086;5.090;2022-08-01T14:40:14;3.70;;;0.95;;
22939;SDS011;11636;52.086;5.090;2022-08-01T14:43:08;3.70;;;0.85;;
22939;SDS011;11636;52.086;5.090;2022-08-01T14:46:12;2.80;;;0.90;;
22939;SDS011;11636;52.086;5.090;2022-08-01T14:49:06;3.00;;;0.80;;
22939;SDS011;11636;52.086;5.090;2022-08-01T14:52:00;5.07;;;0.98;;
22939;SDS011;11636;52.086;5.090;2022-08-01T14:54:47;3.58;;;1.10;;
22939;SDS011;11636;52.086;5.090;2022-08-01T14:57:41;4.20;;;1.10;;
22939;SDS011;11636;52.086;5.090;2022-08-01T15:00:28;4.75;;;1.02;;
22939;SDS011;11636;52.086;5.090;2022-08-01T15:03:22;4.13;;;1.20;;
22939;SDS011;11636;52.086;5.090;2022-08-01T15:06:16;17.13;;;2.25;;
22939;SDS011;11636;52.086;5.090;2022-08-01T15:09:10;4.28;;;1.20;;
22939;SDS011;11636;52.086;5.090;2022-08-01T15:12:04;5.20;;;1.17;;
22939;SDS011;11636;52.086;5.090;2022-08-01T15:14:53;8.23;;;1.33;;
22939;SDS011;11636;52.086;5.090;2022-08-01T15:17:46;5.65;;;1.23;;
22939;SDS011;11636;52.086;5.090;2022-08-01T15:20:33;6.20;;;1.20;;
22939;SDS011;11636;52.086;5.090;2022-08-01T15:23:27;2.78;;;0.80;;
22939;SDS011;11636;52.086;5.090;2022-08-01T15:26:21;4.20;;;1.00;;
22939;SDS011;11636;52.086;5.090;2022-08-01T15:29:15;2.67;;;0.82;;
22939;SDS011;11636;52.086;5.090;2022-08-01T15:32:03;2.90;;;0.80;;
22939;SDS011;11636;52.086;5.090;2022-08-01T15:34:57;2.63;;;0.80;;
22939;SDS011;11636;52.086;5.090;2022-08-01T15:37:44;3.70;;;0.85;;
22939;SDS011;11636;52.086;5.090;2022-08-01T15:40:38;3.65;;;0.70;;
22939;SDS011;11636;52.086;5.090;2022-08-01T15:43:25;4.53;;;1.00;;
22939;SDS011;11636;52.086;5.090;2022-08-01T15:46:29;3.30;;;0.70;;
22939;SDS011;11636;52.086;5.090;2022-08-01T15:49:17;1.70;;;0.60;;
22939;SDS011;11636;52.086;5.090;2022-08-01T15:52:11;1.95;;;0.50;;
22939;SDS011;11636;52.086;5.090;2022-08-01T15:55:08;3.40;;;0.80;;
22939;SDS011;11636;52.086;5.090;2022-08-01T15:58:01;2.22;;;0.73;;
22939;SDS011;11636;52.086;5.090;2022-08-01T16:00:49;3.13;;;0.70;;
22939;SDS011;11636;52.086;5.090;2022-08-01T16:03:42;3.75;;;0.85;;
22939;SDS011;11636;52.086;5.090;2022-08-01T16:06:36;7.22;;;1.25;;
22939;SDS011;11636;52.086;5.090;2022-08-01T16:09:24;6.40;;;1.05;;
22939;SDS011;11636;52.086;5.090;2022-08-01T16:12:17;3.00;;;0.70;;
22939;SDS011;11636;52.086;5.090;2022-08-01T16:15:05;2.95;;;0.70;;
22939;SDS011;11636;52.086;5.090;2022-08-01T16:17:58;2.63;;;0.65;;
22939;SDS011;11636;52.086;5.090;2022-08-01T16:20:47;3.22;;;0.70;;
22939;SDS011;11636;52.086;5.090;2022-08-01T16:23:41;2.95;;;0.80;;
22939;SDS011;11636;52.086;5.090;2022-08-01T16:26:36;3.03;;;0.80;;
22939;SDS011;11636;52.086;5.090;2022-08-01T16:29:30;1.58;;;0.50;;
22939;SDS011;11636;52.086;5.090;2022-08-01T16:32:24;3.35;;;0.82;;
22939;SDS011;11636;52.086;5.090;2022-08-01T16:35:25;2.88;;;0.85;;
22939;SDS011;11636;52.086;5.090;2022-08-01T16:38:22;4.28;;;0.80;;
22939;SDS011;11636;52.086;5.090;2022-08-01T16:41:09;2.13;;;0.60;;
22939;SDS011;11636;52.086;5.090;2022-08-01T16:44:05;3.70;;;0.85;;
22939;SDS011;11636;52.086;5.090;2022-08-01T16:47:00;1.95;;;0.70;;
22939;SDS011;11636;52.086;5.090;2022-08-01T16:49:49;2.85;;;0.70;;
22939;SDS011;11636;52.086;5.090;2022-08-01T16:52:43;3.10;;;0.80;;
22939;SDS011;11636;52.086;5.090;2022-08-01T16:55:30;4.05;;;1.00;;
22939;SDS011;11636;52.086;5.090;2022-08-01T16:58:36;3.10;;;0.95;;
22939;SDS011;11636;52.086;5.090;2022-08-01T17:01:23;3.60;;;0.80;;
22939;SDS011;11636;52.086;5.090;2022-08-01T17:04:37;3.42;;;0.80;;
22939;SDS011;11636;52.086;5.090;2022-08-01T17:07:31;2.38;;;0.85;;
22939;SDS011;11636;52.086;5.090;2022-08-01T17:10:25;2.60;;;0.80;;
22939;SDS011;11636;52.086;5.090;2022-08-01T17:13:19;2.10;;;0.68;;
22939;SDS011;11636;52.086;5.090;2022-08-01T17:16:09;2.55;;;0.60;;
22939;SDS011;11636;52.086;5.090;2022-08-01T17:19:02;1.67;;;0.60;;
22939;SDS011;11636;52.086;5.090;2022-08-01T17:21:50;1.95;;;0.50;;
22939;SDS011;11636;52.086;5.090;2022-08-01T17:24:43;1.35;;;0.50;;
22939;SDS011;11636;52.086;5.090;2022-08-01T17:27:31;1.27;;;0.43;;
22939;SDS011;11636;52.086;5.090;2022-08-01T17:30:24;0.93;;;0.43;;
22939;SDS011;11636;52.086;5.090;2022-08-01T17:33:19;1.65;;;0.60;;
22939;SDS011;11636;52.086;5.090;2022-08-01T17:36:06;1.83;;;0.60;;
22939;SDS011;11636;52.086;5.090;2022-08-01T17:39:00;1.65;;;0.60;;
22939;SDS011;11636;52.086;5.090;2022-08-01T17:41:55;1.48;;;0.50;;
22939;SDS011;11636;52.086;5.090;2022-08-01T17:44:43;1.55;;;0.40;;
22939;SDS011;11636;52.086;5.090;2022-08-01T17:47:39;2.00;;;0.60;;
22939;SDS011;11636;52.086;5.090;2022-08-01T17:50:36;1.38;;;0.50;;
22939;SDS011;11636;52.086;5.090;2022-08-01T17:53:23;1.05;;;0.40;;
22939;SDS011;11636;52.086;5.090;2022-08-01T17:56:17;2.95;;;0.70;;
22939;SDS011;11636;52.086;5.090;2022-08-01T17:59:11;3.13;;;1.00;;
22939;SDS011;11636;52.086;5.090;2022-08-01T18:01:58;3.97;;;1.20;;
22939;SDS011;11636;52.086;5.090;2022-08-01T18:04:54;3.47;;;0.70;;
22939;SDS011;11636;52.086;5.090;2022-08-01T18:07:41;2.70;;;0.80;;
22939;SDS011;11636;52.086;5.090;2022-08-01T18:10:47;3.05;;;0.80;;